createdAt,value
2022-12-18T00:00:52.622Z,12.52
2022-12-18T00:03:56.594Z,12.00
2022-12-18T00:06:59.377Z,13.68
2022-12-18T00:10:01.646Z,12.70
2022-12-18T00:13:06.693Z,11.25
2022-12-18T00:16:14.667Z,11.55
2022-12-18T00:19:17.007Z,12.23
2022-12-18T00:22:19.282Z,12.90
2022-12-18T00:25:21.882Z,13.20
2022-12-18T00:28:24.057Z,12.70
2022-12-18T00:31:27.400Z,13.52
2022-12-18T00:34:29.735Z,12.25
2022-12-18T00:37:32.059Z,11.52
2022-12-18T00:40:34.548Z,11.55
2022-12-18T00:43:38.218Z,12.15
2022-12-18T00:46:41.411Z,12.23
2022-12-18T00:49:43.903Z,10.77
2022-12-18T00:52:46.216Z,11.10
2022-12-18T00:55:48.481Z,12.05
2022-12-18T00:58:51.035Z,11.55
2022-12-18T01:01:53.564Z,11.27
2022-12-18T01:04:56.241Z,11.85
2022-12-18T01:07:58.765Z,10.55
2022-12-18T01:11:01.199Z,10.65
2022-12-18T01:14:03.829Z,10.25
2022-12-18T01:17:06.103Z,10.73
2022-12-18T01:20:10.540Z,10.38
2022-12-18T01:23:14.398Z,9.57
2022-12-18T01:26:17.435Z,11.55
2022-12-18T01:29:19.630Z,9.95
2022-12-18T01:32:23.147Z,9.95
2022-12-18T01:35:25.942Z,9.50
2022-12-18T01:38:30.591Z,10.93
2022-12-18T01:41:52.865Z,9.32
2022-12-18T01:45:13.104Z,9.82
2022-12-18T01:48:15.222Z,9.30
2022-12-18T01:51:18.893Z,10.10
2022-12-18T01:54:21.177Z,9.85
2022-12-18T01:57:25.169Z,8.80
2022-12-18T02:00:29.005Z,8.82
2022-12-18T02:03:31.279Z,9.75
2022-12-18T02:06:42.283Z,9.90
2022-12-18T02:09:57.281Z,8.82
2022-12-18T02:13:14.116Z,7.82
2022-12-18T02:16:38.134Z,7.45
2022-12-18T02:19:52.282Z,7.90
2022-12-18T02:23:06.721Z,9.40
2022-12-18T02:26:51.483Z,7.60
2022-12-18T02:30:00.631Z,8.20
2022-12-18T02:33:09.690Z,8.47
2022-12-18T02:36:16.856Z,6.95
2022-12-18T02:39:22.009Z,7.85
2022-12-18T02:42:34.254Z,7.45
2022-12-18T02:45:52.339Z,7.40
2022-12-18T02:49:11.087Z,7.20
2022-12-18T02:52:23.065Z,7.28
2022-12-18T02:55:25.607Z,7.32
2022-12-18T02:58:47.224Z,6.40
2022-12-18T03:02:05.955Z,7.30
2022-12-18T03:05:37.574Z,6.75
2022-12-18T03:08:47.679Z,6.82
2022-12-18T03:12:18.098Z,6.68
2022-12-18T03:15:30.926Z,6.63
2022-12-18T03:18:51.608Z,6.47
2022-12-18T03:21:56.970Z,6.57
2022-12-18T03:25:03.282Z,6.22
2022-12-18T03:28:09.685Z,6.32
2022-12-18T03:31:15.247Z,6.90
2022-12-18T03:34:24.543Z,5.63
2022-12-18T03:37:26.911Z,6.50
2022-12-18T03:40:55.514Z,6.07
2022-12-18T03:44:33.702Z,6.30
2022-12-18T03:47:54.589Z,6.53
2022-12-18T03:51:07.007Z,6.57
2022-12-18T03:54:12.183Z,5.78
2022-12-18T03:57:26.708Z,5.68
2022-12-18T04:00:32.079Z,6.60
2022-12-18T04:03:43.822Z,5.97
2022-12-18T04:06:49.262Z,6.10
2022-12-18T04:09:57.463Z,6.07
2022-12-18T04:13:00.452Z,5.85
2022-12-18T04:16:03.962Z,5.88
2022-12-18T04:19:06.628Z,6.00
2022-12-18T04:22:14.717Z,6.22
2022-12-18T04:25:21.506Z,5.70
2022-12-18T04:28:37.537Z,5.63
2022-12-18T04:31:40.275Z,5.60
2022-12-18T04:34:42.938Z,5.22
2022-12-18T04:37:45.187Z,5.78
2022-12-18T04:40:47.763Z,6.60
2022-12-18T04:43:57.471Z,5.63
2022-12-18T04:46:59.706Z,6.50
2022-12-18T04:50:02.059Z,5.65
2022-12-18T04:53:04.385Z,5.80
2022-12-18T04:56:09.813Z,5.90
2022-12-18T04:59:12.075Z,5.90
2022-12-18T05:02:14.384Z,6.03
2022-12-18T05:05:16.864Z,5.88
2022-12-18T05:08:19.638Z,5.13
2022-12-18T05:11:22.508Z,5.43
2022-12-18T05:14:24.742Z,5.85
2022-12-18T05:17:27.056Z,5.95
2022-12-18T05:20:29.976Z,5.50
2022-12-18T05:23:32.887Z,5.72
2022-12-18T05:26:35.195Z,5.70
2022-12-18T05:29:37.415Z,5.07
2022-12-18T05:32:39.701Z,5.88
2022-12-18T05:35:41.912Z,5.55
2022-12-18T05:38:44.278Z,5.65
2022-12-18T05:41:46.460Z,5.45
2022-12-18T05:44:49.123Z,5.80
2022-12-18T05:47:51.563Z,6.03
2022-12-18T05:50:53.753Z,5.95
2022-12-18T05:53:56.391Z,5.10
2022-12-18T05:56:59.198Z,6.03
2022-12-18T06:00:01.445Z,5.65
2022-12-18T06:03:03.835Z,5.70
2022-12-18T06:06:20.934Z,5.55
2022-12-18T06:09:23.316Z,5.43
2022-12-18T06:12:25.564Z,5.57
2022-12-18T06:15:27.800Z,5.65
2022-12-18T06:18:30.107Z,5.28
2022-12-18T06:21:33.261Z,6.28
2022-12-18T06:24:36.706Z,6.65
2022-12-18T06:27:39.168Z,6.07
2022-12-18T06:30:44.096Z,5.50
2022-12-18T06:33:46.291Z,4.82
2022-12-18T06:36:48.606Z,5.28
2022-12-18T06:39:50.949Z,5.20
2022-12-18T06:42:53.052Z,5.28
2022-12-18T06:46:01.597Z,5.68
2022-12-18T06:49:03.877Z,5.90
2022-12-18T06:52:06.090Z,6.05
2022-12-18T06:55:10.496Z,5.82
2022-12-18T06:58:12.972Z,5.25
2022-12-18T07:01:15.460Z,5.93
2022-12-18T07:04:17.830Z,5.68
2022-12-18T07:07:20.041Z,5.38
2022-12-18T07:10:22.237Z,6.72
2022-12-18T07:13:24.532Z,6.03
2022-12-18T07:16:29.532Z,6.10
2022-12-18T07:19:31.767Z,6.05
2022-12-18T07:22:34.633Z,5.07
2022-12-18T07:25:38.130Z,5.85
2022-12-18T07:28:41.961Z,5.68
2022-12-18T07:31:44.318Z,5.55
2022-12-18T07:34:46.533Z,5.65
2022-12-18T07:37:49.487Z,5.75
2022-12-18T07:40:51.683Z,5.70
2022-12-18T07:43:54.046Z,6.22
2022-12-18T07:46:56.390Z,6.05
2022-12-18T07:49:58.520Z,6.32
2022-12-18T07:53:04.580Z,7.30
2022-12-18T07:56:28.065Z,6.32
2022-12-18T08:10:17.315Z,6.85
2022-12-18T08:13:20.089Z,5.97
2022-12-18T08:16:23.512Z,6.70
2022-12-18T08:19:25.788Z,6.70
2022-12-18T08:22:28.082Z,6.07
2022-12-18T08:25:30.240Z,6.60
2022-12-18T08:28:32.859Z,7.70
2022-12-18T08:31:35.424Z,6.70
2022-12-18T08:34:37.710Z,7.28
2022-12-18T08:37:39.825Z,7.50
2022-12-18T08:40:43.774Z,7.78
2022-12-18T08:44:06.692Z,7.70
2022-12-18T08:47:09.816Z,7.60
2022-12-18T08:50:13.586Z,7.53
2022-12-18T08:53:16.290Z,7.57
2022-12-18T08:56:18.580Z,7.95
2022-12-18T08:59:21.158Z,8.30
2022-12-18T09:02:23.810Z,8.27
2022-12-18T09:05:26.003Z,9.30
2022-12-18T09:08:28.909Z,8.70
2022-12-18T09:11:31.973Z,8.25
2022-12-18T09:14:34.242Z,9.18
2022-12-18T09:17:36.323Z,8.73
2022-12-18T09:20:39.321Z,8.30
2022-12-18T09:23:41.891Z,8.90
2022-12-18T09:26:46.836Z,9.40
2022-12-18T09:29:49.793Z,8.27
2022-12-18T09:32:51.994Z,8.60
2022-12-18T09:35:54.194Z,8.35
2022-12-18T09:38:56.443Z,8.48
2022-12-18T09:41:59.813Z,8.35
2022-12-18T09:45:04.044Z,8.85
2022-12-18T09:48:08.234Z,9.40
2022-12-18T09:51:18.779Z,9.43
2022-12-18T09:54:34.078Z,8.63
2022-12-18T09:57:40.400Z,9.23
2022-12-18T10:00:42.643Z,8.82
2022-12-18T10:03:44.765Z,9.05
2022-12-18T10:07:11.747Z,10.02
2022-12-18T10:10:16.948Z,8.45
2022-12-18T10:13:47.720Z,8.73
2022-12-18T10:17:27.027Z,8.35
2022-12-18T10:21:04.189Z,8.85
2022-12-18T10:24:16.037Z,8.18
2022-12-18T10:27:22.692Z,9.05
2022-12-18T10:30:26.630Z,8.45
2022-12-18T10:33:35.575Z,8.10
2022-12-18T10:36:38.104Z,8.40
2022-12-18T10:39:40.421Z,8.48
2022-12-18T10:42:45.069Z,8.95
2022-12-18T10:46:15.607Z,8.50
2022-12-18T10:49:36.934Z,8.70
2022-12-18T10:52:45.027Z,8.25
2022-12-18T10:55:51.939Z,8.38
2022-12-18T10:59:06.304Z,8.95
2022-12-18T11:02:29.261Z,8.07
2022-12-18T11:05:34.164Z,7.55
2022-12-18T11:08:36.412Z,7.57
2022-12-18T11:11:38.846Z,7.78
2022-12-18T11:14:50.740Z,9.13
2022-12-18T11:17:53.767Z,8.77
2022-12-18T11:21:00.698Z,8.93
2022-12-18T11:24:03.187Z,8.90
2022-12-18T11:27:07.365Z,8.90
2022-12-18T11:30:32.185Z,8.43
2022-12-18T11:33:35.002Z,7.93
2022-12-18T11:36:48.710Z,7.95
2022-12-18T11:40:00.897Z,8.23
2022-12-18T11:43:08.898Z,8.35
2022-12-18T11:46:20.304Z,8.38
2022-12-18T11:49:37.263Z,9.20
2022-12-18T11:52:41.554Z,8.85
2022-12-18T11:56:05.885Z,8.88
2022-12-18T11:59:28.379Z,8.50
2022-12-18T12:03:19.735Z,8.57
2022-12-18T12:06:51.358Z,8.55
2022-12-18T12:10:15.404Z,7.53
2022-12-18T12:13:20.740Z,8.68
2022-12-18T12:16:54.905Z,8.80
2022-12-18T12:20:28.512Z,8.05
2022-12-18T12:23:47.555Z,8.35
2022-12-18T12:26:54.896Z,8.55
2022-12-18T12:30:08.225Z,8.43
2022-12-18T12:33:19.846Z,8.88
2022-12-18T12:36:38.068Z,8.45
2022-12-18T12:39:43.721Z,9.43
2022-12-18T12:43:11.998Z,9.50
2022-12-18T12:46:17.985Z,9.60
2022-12-18T12:49:23.923Z,10.30
2022-12-18T12:52:58.427Z,10.30
2022-12-18T12:56:01.225Z,9.75
2022-12-18T12:59:23.799Z,9.95
2022-12-18T13:02:31.792Z,9.82
2022-12-18T13:05:49.474Z,9.60
2022-12-18T13:09:00.255Z,9.48
2022-12-18T13:12:24.487Z,9.95
2022-12-18T13:15:36.781Z,9.55
2022-12-18T13:18:53.271Z,9.68
2022-12-18T13:21:57.406Z,8.95
2022-12-18T13:25:00.320Z,9.32
2022-12-18T13:28:07.052Z,9.20
2022-12-18T13:31:09.729Z,9.13
2022-12-18T13:34:27.617Z,9.38
2022-12-18T13:37:33.498Z,9.55
2022-12-18T13:40:49.348Z,9.65
2022-12-18T13:43:59.102Z,8.90
2022-12-18T13:47:04.491Z,8.93
2022-12-18T13:50:29.710Z,9.63
2022-12-18T13:53:52.801Z,8.37
2022-12-18T13:56:55.248Z,10.02
2022-12-18T13:59:58.937Z,8.77
2022-12-18T14:03:01.857Z,9.05
2022-12-18T14:06:08.100Z,8.65
2022-12-18T14:09:21.726Z,9.10
2022-12-18T14:12:51.277Z,8.82
2022-12-18T14:15:54.872Z,8.55
2022-12-18T14:19:02.237Z,9.55
2022-12-18T14:22:30.638Z,8.47
2022-12-18T14:25:33.102Z,9.35
2022-12-18T14:28:44.960Z,8.70
2022-12-18T14:31:47.302Z,8.82
2022-12-18T14:34:56.802Z,9.65
2022-12-18T14:38:17.463Z,9.43
2022-12-18T14:41:21.037Z,9.02
2022-12-18T14:44:23.670Z,9.88
2022-12-18T14:47:25.927Z,10.45
2022-12-18T14:50:28.239Z,9.93
2022-12-18T14:53:35.511Z,9.93
2022-12-18T14:56:44.302Z,9.75
2022-12-18T14:59:46.678Z,10.63
2022-12-18T15:02:55.485Z,11.25
2022-12-18T15:06:15.941Z,10.98
2022-12-18T15:09:25.511Z,11.25
2022-12-18T15:12:44.229Z,12.25
2022-12-18T15:15:47.897Z,12.10
2022-12-18T15:18:50.297Z,13.07
2022-12-18T15:21:52.575Z,11.50
2022-12-18T15:24:56.435Z,12.25
2022-12-18T15:27:58.767Z,11.65
2022-12-18T15:31:10.193Z,12.52
2022-12-18T15:34:22.530Z,12.40
2022-12-18T15:37:24.695Z,13.20
2022-12-18T15:40:26.954Z,13.00
2022-12-18T15:43:35.672Z,13.32
2022-12-18T15:46:37.958Z,13.55
2022-12-18T15:49:41.289Z,13.35
2022-12-18T15:52:46.902Z,13.38
2022-12-18T15:56:07.429Z,13.73
2022-12-18T15:59:15.582Z,13.93
2022-12-18T16:02:20.262Z,14.38
2022-12-18T16:05:24.335Z,14.23
2022-12-18T16:08:26.501Z,13.57
2022-12-18T16:11:41.860Z,14.57
2022-12-18T16:14:44.271Z,14.82
2022-12-18T16:17:47.896Z,15.27
2022-12-18T16:20:50.193Z,15.23
2022-12-18T16:23:52.367Z,15.23
2022-12-18T16:26:56.681Z,15.15
2022-12-18T16:29:58.872Z,16.98
2022-12-18T16:33:01.078Z,14.43
2022-12-18T16:36:03.481Z,16.23
2022-12-18T16:39:05.664Z,17.50
2022-12-18T16:42:20.661Z,16.45
2022-12-18T16:45:23.074Z,17.63
2022-12-18T16:48:25.361Z,17.33
2022-12-18T16:51:28.775Z,18.00
2022-12-18T16:54:31.248Z,17.33
2022-12-18T16:57:33.491Z,15.93
2022-12-18T17:00:35.736Z,16.88
2022-12-18T17:03:38.594Z,17.30
2022-12-18T17:06:43.382Z,18.85
2022-12-18T17:09:46.470Z,17.75
2022-12-18T17:12:51.519Z,19.30
2022-12-18T17:15:53.975Z,18.20
2022-12-18T17:18:56.395Z,18.38
2022-12-18T17:21:59.037Z,18.65
2022-12-18T17:25:01.295Z,17.75
2022-12-18T17:28:03.759Z,18.48
2022-12-18T17:31:20.583Z,20.13
2022-12-18T17:34:23.621Z,18.23
2022-12-18T17:37:25.806Z,19.45
2022-12-18T17:40:28.069Z,19.35
2022-12-18T17:43:30.448Z,19.35
2022-12-18T17:46:34.439Z,19.63
2022-12-18T17:49:36.674Z,18.20
2022-12-18T17:52:38.864Z,19.30
2022-12-18T17:55:41.086Z,19.45
2022-12-18T17:58:43.970Z,20.45
2022-12-18T18:01:46.567Z,18.73
2022-12-18T18:04:48.766Z,19.77
2022-12-18T18:07:50.883Z,18.95
2022-12-18T18:10:55.584Z,19.90
2022-12-18T18:14:00.957Z,17.92
2022-12-18T18:17:04.706Z,17.80
2022-12-18T18:20:07.860Z,18.25
2022-12-18T18:23:10.140Z,18.92
2022-12-18T18:26:12.397Z,19.40
2022-12-18T18:29:17.434Z,18.83
2022-12-18T18:32:19.714Z,19.00
2022-12-18T18:35:52.832Z,19.90
2022-12-18T18:38:48.666Z,17.98
2022-12-18T18:41:53.660Z,18.52
2022-12-18T18:44:55.889Z,18.30
2022-12-18T18:47:59.438Z,17.60
2022-12-18T18:51:07.268Z,18.25
2022-12-18T18:54:10.406Z,18.88
2022-12-18T18:57:21.633Z,18.42
2022-12-18T19:00:24.955Z,16.67
2022-12-18T19:03:27.917Z,18.17
2022-12-18T19:06:30.176Z,18.95
2022-12-18T19:09:33.665Z,16.65
2022-12-18T19:12:54.749Z,18.00
2022-12-18T19:16:08.436Z,17.10
2022-12-18T19:19:13.341Z,17.40
2022-12-18T19:22:15.941Z,16.52
2022-12-18T19:25:18.592Z,18.08
2022-12-18T19:28:29.068Z,17.30
2022-12-18T19:34:39.063Z,16.13
2022-12-18T19:37:41.309Z,16.77
2022-12-18T19:40:44.227Z,15.68
2022-12-18T19:43:47.552Z,16.58
2022-12-18T19:46:52.864Z,17.70
2022-12-18T19:49:55.021Z,16.60
2022-12-18T19:52:57.351Z,16.88
2022-12-18T19:56:04.471Z,15.68
2022-12-18T19:59:06.725Z,15.18
2022-12-18T20:02:14.092Z,14.70
2022-12-18T20:05:16.799Z,15.05
2022-12-18T20:08:18.991Z,15.73
2022-12-18T20:11:21.431Z,16.33
2022-12-18T20:14:23.916Z,16.20
2022-12-18T20:17:26.324Z,16.52
2022-12-18T20:20:29.167Z,16.40
2022-12-18T20:23:32.829Z,15.50
2022-12-18T20:26:36.662Z,15.27
2022-12-18T20:29:38.983Z,14.20
2022-12-18T20:32:41.225Z,15.55
2022-12-18T20:35:43.495Z,16.48
2022-12-18T20:38:46.193Z,16.23
2022-12-18T20:41:49.612Z,15.15
2022-12-18T20:44:51.786Z,15.60
2022-12-18T20:47:55.458Z,14.75
2022-12-18T20:51:03.626Z,16.20
2022-12-18T20:54:10.377Z,14.32
2022-12-18T20:57:14.399Z,16.30
2022-12-18T21:00:19.456Z,15.15
2022-12-18T21:03:23.445Z,14.63
2022-12-18T21:06:25.635Z,15.38
2022-12-18T21:09:27.767Z,16.75
2022-12-18T21:13:01.513Z,15.63
2022-12-18T21:16:06.955Z,16.25
2022-12-18T21:19:14.622Z,15.20
2022-12-18T21:22:16.839Z,14.52
2022-12-18T21:25:19.028Z,14.65
2022-12-18T21:28:21.380Z,16.40
2022-12-18T21:31:25.099Z,16.23
2022-12-18T21:34:29.438Z,15.23
2022-12-18T21:37:31.599Z,15.15
2022-12-18T21:40:33.825Z,15.57
2022-12-18T21:43:57.655Z,16.00
2022-12-18T21:47:08.066Z,16.17
2022-12-18T21:50:14.672Z,16.50
2022-12-18T21:53:16.875Z,16.10
2022-12-18T21:56:19.277Z,14.57
2022-12-18T21:59:36.603Z,15.10
2022-12-18T22:02:38.937Z,15.13
2022-12-18T22:05:41.423Z,15.57
2022-12-18T22:08:44.077Z,15.48
2022-12-18T22:11:47.858Z,15.77
2022-12-18T22:14:49.998Z,15.35
2022-12-18T22:17:55.514Z,15.23
2022-12-18T22:21:06.147Z,14.82
2022-12-18T22:24:13.360Z,14.30
2022-12-18T22:27:15.539Z,15.40
2022-12-18T22:30:17.813Z,15.13
2022-12-18T22:33:20.013Z,15.05
2022-12-18T22:36:22.268Z,14.45
2022-12-18T22:39:28.457Z,14.52
2022-12-18T22:42:31.488Z,13.70
2022-12-18T22:45:34.132Z,14.82
2022-12-18T22:48:40.644Z,13.13
2022-12-18T22:51:43.497Z,14.38
2022-12-18T22:54:46.745Z,13.27
2022-12-18T22:57:50.367Z,13.50
2022-12-18T23:00:52.622Z,12.63
2022-12-18T23:03:55.301Z,13.10
2022-12-18T23:06:57.603Z,11.65
2022-12-18T23:10:01.212Z,13.38
2022-12-18T23:13:03.562Z,13.50
2022-12-18T23:16:07.790Z,11.43
2022-12-18T23:19:10.587Z,12.10
2022-12-18T23:22:12.730Z,10.95
2022-12-18T23:25:14.995Z,12.95
2022-12-18T23:28:17.150Z,12.15
2022-12-18T23:31:21.498Z,12.05
2022-12-18T23:34:23.703Z,12.77
2022-12-18T23:37:56.829Z,10.30
2022-12-18T23:40:48.016Z,11.82
2022-12-18T23:43:52.162Z,12.10
2022-12-18T23:46:54.747Z,11.55
2022-12-18T23:49:56.895Z,11.55
2022-12-18T23:53:04.911Z,11.98
2022-12-18T23:56:09.148Z,12.73
2022-12-18T23:59:11.399Z,12.23
